Time;durP1;ratioP1;P1;durP2;ratioP2;P2;SDS_P1;SDS_P2;PMS_P1;PMS_P2;Temp;Humidity;BMP_temperature;BMP_pressure;BME280_temperature;BME280_humidity;BME280_pressure;Samples;Min_cycle;Max_cycle;Signal;HPM_P1;HPM_P2
2022/11/20 00:02:53;;;;;;;;;8.33;8.33;;;;;9.36;100.00;100698.75;6226790;22;44865;-86
2022/11/20 00:05:19;;;;;;;;;9.33;7.33;;;;;9.32;100.00;100697.78;6226390;22;45325;-85
2022/11/20 00:07:45;;;;;;;;;11.67;9.33;;;;;9.46;100.00;100723.72;6225261;22;45385;-86
2022/11/20 00:10:10;;;;;;;;;10.00;8.00;;;;;9.44;100.00;100728.09;6226987;22;45354;-84
2022/11/20 00:12:39;;;;;;;;;9.00;7.00;;;;;9.31;100.00;100711.03;6227065;22;45247;-87
2022/11/20 00:15:05;;;;;;;;;9.00;9.00;;;;;9.36;100.00;100720.88;6223886;22;45278;-86
2022/11/20 00:17:30;;;;;;;;;15.00;9.33;;;;;9.33;100.00;100726.13;6225930;22;45320;-86
2022/11/20 00:19:56;;;;;;;;;9.00;8.67;;;;;9.31;100.00;100725.22;6217222;22;45503;-88
2022/11/20 00:22:21;;;;;;;;;10.00;9.00;;;;;9.28;100.00;100722.47;6227051;22;46281;-85
2022/11/20 00:24:47;;;;;;;;;8.00;8.00;;;;;9.24;100.00;100728.59;6249936;22;45394;-87
2022/11/20 00:27:13;;;;;;;;;9.00;9.00;;;;;9.21;100.00;100721.47;6223903;22;45205;-85
2022/11/20 00:29:38;;;;;;;;;10.33;10.33;;;;;9.19;100.00;100727.63;6226923;22;45223;-86
2022/11/20 00:32:04;;;;;;;;;6.33;6.33;;;;;9.13;100.00;100733.72;6225573;22;46985;-87
2022/11/20 00:34:29;;;;;;;;;6.33;6.33;;;;;9.14;100.00;100734.59;6250276;22;45800;-87
2022/11/20 00:36:55;;;;;;;;;6.00;5.00;;;;;9.13;100.00;100727.47;6227105;22;44740;-87
2022/11/20 00:39:26;;;;;;;;;12.33;10.00;;;;;9.10;100.00;100743.34;6226771;22;45372;-87
2022/11/20 00:41:52;;;;;;;;;9.00;7.00;;;;;9.07;100.00;100737.97;6225676;22;45387;-87
2022/11/20 00:44:18;;;;;;;;;11.67;7.33;;;;;9.00;100.00;100732.53;6226285;22;45298;-87
2022/11/20 00:46:45;;;;;;;;;7.67;5.33;;;;;9.00;100.00;100737.84;6225198;22;45141;-87
2022/11/20 00:49:10;;;;;;;;;7.67;7.67;;;;;9.00;100.00;100750.22;6251703;22;45196;-86
2022/11/20 00:51:37;;;;;;;;;7.67;7.67;;;;;8.94;100.00;100748.34;6200016;22;46974;-86
2022/11/20 00:54:05;;;;;;;;;8.67;8.00;;;;;8.94;100.00;100748.34;6227246;22;45453;-87
2022/11/20 00:56:31;;;;;;;;;6.67;6.67;;;;;8.92;100.00;100752.72;6226833;22;45250;-87
2022/11/20 00:58:59;;;;;;;;;7.33;5.67;;;;;8.90;100.00;100751.78;6248293;22;45417;-87
2022/11/20 01:01:29;;;;;;;;;9.33;7.67;;;;;8.85;100.00;100741.94;6226708;22;45401;-86
2022/11/20 01:03:56;;;;;;;;;6.67;6.67;;;;;8.87;100.00;100758.81;6227280;22;44804;-86
2022/11/20 01:06:31;;;;;;;;;5.33;3.67;;;;;8.84;100.00;100756.97;6227262;22;45175;-86
2022/11/20 01:09:00;;;;;;;;;4.33;4.33;;;;;8.76;100.00;100743.53;6227587;22;45263;-86
2022/11/20 01:11:31;;;;;;;;;4.00;2.67;;;;;8.75;100.00;100749.72;6225297;22;46889;-85
2022/11/20 01:14:02;;;;;;;;;6.33;6.33;;;;;8.71;100.00;100739.03;6226339;22;45290;-87
2022/11/20 01:16:29;;;;;;;;;8.67;7.33;;;;;8.75;100.00;100757.69;6228330;22;45263;-86
2022/11/20 01:18:57;;;;;;;;;4.67;4.67;;;;;8.67;100.00;100750.44;6225735;22;45489;-84
2022/11/20 01:21:36;;;;;;;;;7.67;7.00;;;;;8.53;100.00;100729.78;6227634;22;45221;-86
2022/11/20 01:24:12;;;;;;;;;4.00;4.00;;;;;8.66;100.00;100759.22;6226255;22;45503;-85
2022/11/20 01:26:40;;;;;;;;;9.00;7.00;;;;;8.64;100.00;100747.69;6172170;22;45387;-86
2022/11/20 01:29:07;;;;;;;;;5.33;3.67;;;;;8.53;100.00;100735.09;6172499;23;45669;-86
2022/11/20 01:31:34;;;;;;;;;7.33;7.33;;;;;8.60;100.00;100752.94;6193804;23;45659;-86
2022/11/20 01:34:05;;;;;;;;;4.00;4.00;;;;;8.58;100.00;100738.75;6169263;23;45596;-86
2022/11/20 01:36:36;;;;;;;;;8.33;7.00;;;;;8.56;100.00;100740.47;6170500;23;45617;-86
2022/11/20 01:39:11;;;;;;;;;4.67;4.00;;;;;8.42;100.00;100718.03;6170467;23;45361;-85
2022/11/20 01:44:49;;;;;;;;;6.33;6.00;;;;;8.41;100.00;100718.94;6197740;22;45273;-86
2022/11/20 01:47:27;;;;;;;;;3.67;3.00;;;;;8.51;100.00;100741.22;6195143;22;45500;-86
2022/11/20 01:50:03;;;;;;;;;3.00;3.00;;;;;8.16;100.00;100675.03;6199082;23;44866;-86
2022/11/20 01:52:56;;;;;;;;;2.33;2.33;;;;;8.49;100.00;100733.25;6171505;22;47984;-87
2022/11/20 01:55:30;;;;;;;;;8.00;6.00;;;;;8.48;100.00;100725.25;6197120;22;45339;-85
2022/11/20 01:57:57;;;;;;;;;4.67;3.00;;;;;8.50;100.00;100734.13;6173109;23;45488;-87
2022/11/20 02:00:23;;;;;;;;;3.00;3.00;;;;;8.51;100.00;100730.63;6199592;22;45378;-86
2022/11/20 02:03:05;;;;;;;;;2.00;2.00;;;;;8.53;100.00;100728.91;6171702;22;46846;-86
2022/11/20 02:05:56;;;;;;;;;6.00;4.00;;;;;8.54;100.00;100722.72;6173878;22;46019;-85
2022/11/20 02:08:23;;;;;;;;;3.00;2.67;;;;;8.43;100.00;100705.72;6199324;22;45190;-86
2022/11/20 02:10:49;;;;;;;;;4.67;4.67;;;;;8.53;100.00;100723.59;6173046;22;45008;-86
2022/11/20 02:16:03;;;;;;;;;6.00;6.00;;;;;8.56;100.00;100719.28;6197816;23;44732;-86
2022/11/20 02:18:28;;;;;;;;;7.00;3.00;;;;;8.58;100.00;100717.56;6171678;22;45319;-87
2022/11/20 02:21:03;;;;;;;;;4.00;2.67;;;;;8.61;100.00;100719.38;6172689;23;45497;-84
2022/11/20 02:23:38;;;;;;;;;2.67;2.67;;;;;8.47;100.00;100695.22;6171406;22;45475;-86
2022/11/20 02:26:08;;;;;;;;;6.00;3.67;;;;;8.64;100.00;100721.19;6222404;22;45684;-86
2022/11/20 02:28:34;;;;;;;;;3.33;3.33;;;;;8.65;100.00;100718.56;6200947;22;45320;-85
2022/11/20 02:31:01;;;;;;;;;4.33;3.33;;;;;8.64;100.00;100707.91;6227796;22;45331;-86
2022/11/20 02:33:27;;;;;;;;;0.00;0.00;;;;;8.67;100.00;100708.00;6201075;22;46827;-86
2022/11/20 02:35:53;;;;;;;;;3.67;3.33;;;;;8.66;100.00;100707.09;6231093;22;44750;-87
2022/11/20 02:38:19;;;;;;;;;4.00;3.00;;;;;8.45;100.00;100666.88;6205078;22;45281;-87
2022/11/20 02:40:44;;;;;;;;;5.00;2.67;;;;;8.49;100.00;100685.53;6202628;22;44832;-85
2022/11/20 02:43:10;;;;;;;;;4.00;4.00;;;;;8.42;100.00;100678.28;6230196;22;45938;-86
2022/11/20 02:56:34;;;;;;;;;1.00;1.00;;;;;8.52;100.00;100674.97;6230330;22;44989;-86
2022/11/20 02:58:59;;;;;;;;;3.33;2.00;;;;;8.44;100.00;100650.06;6203392;22;45293;-86
2022/11/20 03:01:25;;;;;;;;;3.00;3.00;;;;;8.50;100.00;100660.78;6203716;22;45463;-86
2022/11/20 03:03:52;;;;;;;;;2.33;2.00;;;;;8.46;100.00;100651.00;6203508;22;45395;-85
2022/11/20 03:06:17;;;;;;;;;2.00;2.00;;;;;8.41;100.00;100647.38;6202103;22;47942;-86
2022/11/20 03:08:43;;;;;;;;;2.33;2.33;;;;;8.49;100.00;100658.13;6228358;22;45299;-86
2022/11/20 03:11:09;;;;;;;;;2.00;2.00;;;;;8.46;100.00;100645.69;6201883;22;44789;-85
2022/11/20 03:13:35;;;;;;;;;1.33;1.33;;;;;8.49;100.00;100648.44;6203766;22;45393;-86
2022/11/20 03:16:09;;;;;;;;;1.00;1.00;;;;;8.53;100.00;100646.75;6203903;22;45523;-86
2022/11/20 03:18:36;;;;;;;;;4.67;3.67;;;;;8.52;100.00;100643.16;6230533;22;45355;-85
2022/11/20 03:21:02;;;;;;;;;4.33;4.00;;;;;8.51;100.00;100636.09;6230758;22;45365;-85
2022/11/20 03:23:30;;;;;;;;;4.67;2.00;;;;;8.52;100.00;100632.56;6200726;22;44833;-86
2022/11/20 03:25:56;;;;;;;;;2.33;2.33;;;;;8.50;100.00;100631.63;6200779;22;47030;-86
2022/11/20 03:28:21;;;;;;;;;2.67;2.33;;;;;8.50;100.00;100629.00;6201424;22;45271;-86
2022/11/20 03:30:53;;;;;;;;;1.67;1.67;;;;;8.35;100.00;100600.41;6230121;22;45487;-86
2022/11/20 03:33:22;;;;;;;;;2.33;2.33;;;;;8.45;100.00;100614.78;6204236;22;45457;-86
2022/11/20 03:35:49;;;;;;;;;2.00;2.00;;;;;8.54;100.00;100622.00;6228559;22;45411;-86
2022/11/20 03:38:15;;;;;;;;;1.33;1.33;;;;;8.55;100.00;100630.00;6252079;22;44724;-86
2022/11/20 03:40:40;;;;;;;;;2.00;2.00;;;;;8.58;100.00;100619.47;6227429;22;45287;-86
2022/11/20 03:43:09;;;;;;;;;2.67;2.00;;;;;8.53;100.00;100604.34;6228017;22;45248;-87
2022/11/20 03:45:35;;;;;;;;;2.00;2.00;;;;;8.66;100.00;100618.72;6226643;22;47111;-86
2022/11/20 03:48:00;;;;;;;;;3.00;3.00;;;;;8.70;100.00;100623.22;6253051;22;45359;-86
2022/11/20 03:50:26;;;;;;;;;2.00;2.00;;;;;8.70;100.00;100599.34;6227190;22;45470;-86
2022/11/20 03:52:51;;;;;;;;;2.00;2.00;;;;;8.73;100.00;100602.97;6255184;22;44880;-86
2022/11/20 03:55:17;;;;;;;;;0.67;0.67;;;;;8.78;100.00;100603.03;6254653;22;47064;-86
2022/11/20 03:57:42;;;;;;;;;3.33;3.00;;;;;8.84;100.00;100616.41;6228255;22;45348;-87
2022/11/20 04:00:08;;;;;;;;;2.00;2.00;;;;;8.88;100.00;100612.06;6226137;22;45299;-86
2022/11/20 04:02:34;;;;;;;;;4.00;3.00;;;;;8.89;100.00;100614.75;6227152;22;44862;-85
2022/11/20 04:04:59;;;;;;;;;1.00;1.00;;;;;8.92;100.00;100612.16;6229104;22;46879;-86
2022/11/20 04:07:25;;;;;;;;;2.00;2.00;;;;;8.90;100.00;100595.31;6229249;22;45125;-86
2022/11/20 04:09:50;;;;;;;;;3.00;3.00;;;;;8.95;100.00;100612.22;6228517;22;45363;-85
2022/11/20 04:12:16;;;;;;;;;2.33;2.33;;;;;8.98;100.00;100601.66;6227542;22;45231;-86
2022/11/20 04:14:41;;;;;;;;;2.67;2.33;;;;;8.90;100.00;100586.47;6252344;22;45479;-86
2022/11/20 04:17:07;;;;;;;;;1.00;1.00;;;;;9.00;100.00;100601.69;6229157;22;45395;-85
2022/11/20 04:19:32;;;;;;;;;4.00;2.67;;;;;9.09;100.00;100606.25;6229785;22;44701;-86
2022/11/20 04:21:58;;;;;;;;;4.00;3.00;;;;;9.10;100.00;100603.63;6229816;22;45202;-86
2022/11/20 04:24:23;;;;;;;;;1.00;1.00;;;;;9.12;100.00;100603.66;6227953;22;45174;-85
2022/11/20 04:26:49;;;;;;;;;2.00;2.00;;;;;9.20;100.00;100607.34;6198680;22;45253;-87
2022/11/20 04:29:14;;;;;;;;;1.67;1.67;;;;;9.25;100.00;100605.69;6195617;23;44701;-87
2022/11/20 04:31:40;;;;;;;;;3.00;1.67;;;;;9.20;100.00;100594.97;6198559;22;45100;-86
2022/11/20 04:34:07;;;;;;;;;5.33;3.00;;;;;9.13;100.00;100586.88;6171021;23;45096;-86
2022/11/20 04:36:33;;;;;;;;;3.00;3.00;;;;;9.20;100.00;100602.03;6193177;22;45633;-86
2022/11/20 04:39:01;;;;;;;;;3.00;2.00;;;;;8.99;100.00;100584.00;6170592;23;45351;-86
2022/11/20 04:41:32;;;;;;;;;3.00;3.00;;;;;9.12;100.00;100608.97;6171404;23;45422;-85
2022/11/20 04:44:02;;;;;;;;;2.67;2.67;;;;;9.10;100.00;100611.59;6171326;23;46218;-85
2022/11/20 04:46:30;;;;;;;;;5.33;4.00;;;;;9.06;100.00;100601.78;6170959;22;44790;-85
2022/11/20 04:48:56;;;;;;;;;3.00;3.00;;;;;8.95;100.00;100591.00;6203071;22;45845;-86
2022/11/20 04:51:23;;;;;;;;;5.00;4.33;;;;;8.98;100.00;100604.31;6175813;23;45213;-86
2022/11/20 04:53:49;;;;;;;;;2.00;2.00;;;;;8.89;100.00;100588.25;6172778;23;46957;-85
2022/11/20 04:56:15;;;;;;;;;3.00;3.00;;;;;8.89;100.00;100593.53;6195708;22;45362;-86
2022/11/20 04:58:41;;;;;;;;;4.67;3.00;;;;;8.86;100.00;100590.81;6195781;22;45134;-86
2022/11/20 05:01:10;;;;;;;;;2.00;2.00;;;;;8.78;100.00;100582.72;6169072;23;45421;-86
2022/11/20 05:03:36;;;;;;;;;2.00;2.00;;;;;8.80;100.00;100583.63;6168898;23;47205;-86
2022/11/20 05:06:03;;;;;;;;;3.00;3.00;;;;;8.82;100.00;100584.56;6169883;22;45267;-86
2022/11/20 05:08:30;;;;;;;;;3.00;3.00;;;;;8.84;100.00;100581.06;6171116;22;45418;-86
2022/11/20 05:11:17;;;;;;;;;2.00;2.00;;;;;8.88;100.00;100585.56;6199989;23;45340;-86
2022/11/20 05:13:43;;;;;;;;;2.67;2.67;;;;;8.84;100.00;100575.75;6172461;23;47275;-86
2022/11/20 05:16:14;;;;;;;;;6.67;4.00;;;;;8.86;100.00;100580.22;6173499;22;45145;-86
2022/11/20 05:18:43;;;;;;;;;2.00;2.00;;;;;8.80;100.00;100572.13;6199809;22;45324;-86
2022/11/20 05:21:10;;;;;;;;;3.00;2.00;;;;;8.80;100.00;100569.50;6201151;22;44762;-86
2022/11/20 05:23:36;;;;;;;;;3.00;3.00;;;;;8.82;100.00;100578.38;6171829;22;45464;-87
2022/11/20 05:29:49;;;;;;;;;2.00;2.00;;;;;8.73;100.00;100563.19;6203839;22;45619;-86
2022/11/20 05:32:15;;;;;;;;;2.00;2.00;;;;;8.79;100.00;100573.03;6194903;22;45339;-86
2022/11/20 05:34:40;;;;;;;;;3.00;3.00;;;;;8.77;100.00;100567.69;6169085;23;45412;-85
2022/11/20 05:37:06;;;;;;;;;3.00;1.00;;;;;8.65;100.00;100558.63;6200015;22;45276;-85
2022/11/20 05:39:33;;;;;;;;;2.00;2.00;;;;;8.55;100.00;100544.28;6173662;23;44696;-85
2022/11/20 05:44:42;;;;;;;;;4.00;3.00;;;;;8.54;100.00;100561.97;6202288;23;45095;-86
2022/11/20 05:47:09;;;;;;;;;3.00;2.00;;;;;8.50;100.00;100562.72;6174388;23;45320;-85
2022/11/20 05:49:35;;;;;;;;;2.33;2.33;;;;;8.45;100.00;100575.00;6175103;22;44768;-85
2022/11/20 05:52:00;;;;;;;;;3.00;3.00;;;;;8.35;100.00;100565.06;6175554;22;45431;-85
2022/11/20 05:54:26;;;;;;;;;4.00;3.00;;;;;8.34;100.00;100548.28;6172530;23;47492;-85
2022/11/20 05:56:51;;;;;;;;;4.67;2.33;;;;;8.44;100.00;100552.00;6174283;23;44893;-85
2022/11/20 05:59:18;;;;;;;;;3.00;3.00;;;;;8.41;100.00;100563.44;6173392;23;44910;-86
2022/11/20 06:01:44;;;;;;;;;3.00;3.00;;;;;8.38;100.00;100551.84;6172986;23;45300;-86
2022/11/20 06:04:09;;;;;;;;;4.00;3.00;;;;;8.45;100.00;100551.16;6173301;23;46809;-86
2022/11/20 06:06:35;;;;;;;;;2.67;2.67;;;;;8.43;100.00;100538.75;6173527;23;45418;-86
2022/11/20 06:09:01;;;;;;;;;1.67;1.67;;;;;8.42;100.00;100532.53;6174947;23;45304;-86
2022/11/20 06:11:26;;;;;;;;;6.00;3.00;;;;;8.47;100.00;100537.94;6174468;23;45646;-86
2022/11/20 06:13:52;;;;;;;;;4.00;4.00;;;;;8.52;100.00;100547.75;6172902;23;45226;-86
2022/11/20 06:16:19;;;;;;;;;3.00;2.67;;;;;8.52;100.00;100539.81;6172311;23;45302;-86
2022/11/20 06:18:45;;;;;;;;;4.00;4.00;;;;;8.53;100.00;100543.38;6174214;23;45248;-86
2022/11/20 06:21:16;;;;;;;;;4.00;4.00;;;;;8.47;100.00;100533.53;6201552;22;45498;-86
2022/11/20 06:23:43;;;;;;;;;3.00;3.00;;;;;8.47;100.00;100527.34;6172402;23;46761;-86
2022/11/20 06:26:15;;;;;;;;;4.00;4.00;;;;;8.44;100.00;100533.47;6173339;23;45292;-86
2022/11/20 06:28:40;;;;;;;;;3.00;3.00;;;;;8.34;100.00;100511.19;6181190;22;45351;-86
2022/11/20 06:31:07;;;;;;;;;1.67;1.67;;;;;8.37;100.00;100526.25;6232138;22;45525;-86
2022/11/20 06:33:33;;;;;;;;;2.67;2.00;;;;;8.29;100.00;100518.13;6205737;22;47177;-86
2022/11/20 06:36:00;;;;;;;;;2.00;2.00;;;;;8.29;100.00;100519.91;6231736;22;45365;-86
2022/11/20 06:38:27;;;;;;;;;3.00;3.00;;;;;8.32;100.00;100519.94;6231397;22;45363;-86
2022/11/20 06:40:55;;;;;;;;;3.00;3.00;;;;;8.35;100.00;100527.97;6232351;22;45329;-86
2022/11/20 06:43:21;;;;;;;;;2.00;0.67;;;;;8.32;100.00;100517.28;6230175;22;45431;-87
2022/11/20 06:45:57;;;;;;;;;4.67;4.67;;;;;8.29;100.00;100498.69;6203677;22;45362;-86
2022/11/20 06:48:23;;;;;;;;;5.33;4.00;;;;;8.25;100.00;100500.38;6231930;22;45368;-87
2022/11/20 06:50:51;;;;;;;;;4.00;4.00;;;;;8.36;100.00;100522.72;6205037;22;45163;-86
2022/11/20 06:53:16;;;;;;;;;6.00;6.00;;;;;8.40;100.00;100537.81;6229064;22;47053;-86
2022/11/20 06:55:44;;;;;;;;;7.00;4.00;;;;;8.17;100.00;100499.34;6231580;22;44773;-86
2022/11/20 06:58:10;;;;;;;;;10.33;6.67;;;;;8.31;100.00;100528.78;6203224;22;45468;-86
2022/11/20 07:00:38;;;;;;;;;4.67;4.67;;;;;8.32;100.00;100527.88;6201804;22;45280;-86
2022/11/20 07:03:04;;;;;;;;;3.33;3.33;;;;;8.37;100.00;100543.03;6202014;22;45230;-86
2022/11/20 07:05:30;;;;;;;;;3.00;3.00;;;;;8.45;100.00;100551.16;6202898;22;45660;-86
2022/11/20 07:07:57;;;;;;;;;6.33;4.00;;;;;8.50;100.00;100552.13;6201208;22;45358;-86
2022/11/20 07:10:23;;;;;;;;;3.00;3.00;;;;;8.50;100.00;100549.47;6228909;22;45378;-83
2022/11/20 07:12:50;;;;;;;;;4.00;3.33;;;;;8.51;100.00;100545.09;6202516;22;45435;-85
2022/11/20 07:15:16;;;;;;;;;3.00;2.00;;;;;8.48;100.00;100534.41;6203445;22;44758;-86
2022/11/20 07:17:42;;;;;;;;;3.00;3.00;;;;;8.46;100.00;100537.03;6231486;22;45315;-86
2022/11/20 07:20:09;;;;;;;;;4.67;4.00;;;;;8.49;100.00;100541.53;6231087;22;45297;-86
2022/11/20 07:22:35;;;;;;;;;5.33;4.00;;;;;8.46;100.00;100542.34;6204143;22;45624;-85
2022/11/20 07:25:01;;;;;;;;;4.33;4.33;;;;;8.43;100.00;100526.38;6203041;22;45549;-85
2022/11/20 07:27:27;;;;;;;;;0.00;0.00;;;;;8.44;100.00;100541.41;6230753;22;45261;-86
2022/11/20 07:30:07;;;;;;;;;3.33;3.33;;;;;8.43;100.00;100531.69;6202089;22;45420;-86
2022/11/20 07:32:33;;;;;;;;;2.00;2.00;;;;;8.37;100.00;100528.88;6230895;22;46945;-86
2022/11/20 07:34:59;;;;;;;;;4.00;4.00;;;;;8.43;100.00;100539.63;6228287;22;45326;-86
2022/11/20 07:37:24;;;;;;;;;4.00;4.00;;;;;8.47;100.00;100546.78;6227215;22;45382;-86
2022/11/20 07:39:50;;;;;;;;;3.00;3.00;;;;;8.47;100.00;100557.38;6228299;22;45265;-87
2022/11/20 07:42:15;;;;;;;;;2.67;2.67;;;;;8.50;100.00;100546.81;6231265;22;45148;-87
2022/11/20 07:44:41;;;;;;;;;6.67;4.00;;;;;8.52;100.00;100544.22;6228447;22;45337;-87
2022/11/20 07:47:06;;;;;;;;;4.00;3.00;;;;;8.56;100.00;100541.69;6229504;22;45708;-85
2022/11/20 07:49:32;;;;;;;;;4.33;3.00;;;;;8.63;100.00;100549.75;6231569;22;45341;-86
2022/11/20 07:51:57;;;;;;;;;5.00;3.00;;;;;8.63;100.00;100550.63;6231122;22;45530;-86
2022/11/20 07:54:23;;;;;;;;;3.00;3.00;;;;;8.69;100.00;100549.84;6229355;22;45410;-85
2022/11/20 07:56:49;;;;;;;;;3.67;3.00;;;;;8.70;100.00;100548.97;6231273;22;45376;-85
2022/11/20 07:59:15;;;;;;;;;3.00;3.00;;;;;8.55;100.00;100515.13;6229790;22;45378;-85
2022/11/20 08:01:42;;;;;;;;;4.00;3.00;;;;;8.59;100.00;100525.81;6230019;22;45466;-85
2022/11/20 08:04:09;;;;;;;;;3.00;3.00;;;;;8.68;100.00;100525.06;6252669;22;45303;-85
2022/11/20 08:06:35;;;;;;;;;4.00;4.00;;;;;8.67;100.00;100523.31;6229245;22;45159;-85
2022/11/20 08:09:00;;;;;;;;;7.00;4.00;;;;;8.77;100.00;100538.50;6228537;22;45568;-86
2022/11/20 08:14:14;;;;;;;;;3.67;3.67;;;;;8.92;100.00;100553.78;6229905;22;45732;-86
2022/11/20 08:16:46;;;;;;;;;2.67;2.00;;;;;8.95;100.00;100543.25;6229904;22;45301;-86
2022/11/20 08:19:13;;;;;;;;;4.67;4.67;;;;;9.01;100.00;100526.56;6232014;22;44740;-86
2022/11/20 08:21:40;;;;;;;;;4.00;3.00;;;;;8.92;100.00;100505.16;6230059;22;46309;-86
2022/11/20 08:24:06;;;;;;;;;4.67;4.67;;;;;9.10;100.00;100525.81;6227049;22;45251;-86
2022/11/20 08:26:33;;;;;;;;;4.00;4.00;;;;;9.12;100.00;100516.13;6229732;22;45452;-85
2022/11/20 08:28:59;;;;;;;;;7.00;7.00;;;;;9.06;100.00;100514.25;6228793;22;45231;-86
2022/11/20 08:31:26;;;;;;;;;7.00;4.00;;;;;9.17;100.00;100527.69;6228067;22;46941;-86
2022/11/20 08:33:53;;;;;;;;;6.00;6.00;;;;;9.19;100.00;100513.59;6228789;22;45365;-86
2022/11/20 08:36:20;;;;;;;;;7.67;6.00;;;;;9.23;100.00;100505.66;6203544;22;45542;-85
2022/11/20 08:38:53;;;;;;;;;7.00;7.00;;;;;9.29;100.00;100517.28;6229047;22;45346;-85
2022/11/20 08:41:28;;;;;;;;;4.00;4.00;;;;;9.18;100.00;100503.84;6225311;22;46237;-85
2022/11/20 08:43:57;;;;;;;;;7.33;7.33;;;;;9.19;100.00;100510.06;6224727;22;45360;-85
2022/11/20 08:46:27;;;;;;;;;7.00;4.67;;;;;9.17;100.00;100503.81;6224268;22;45292;-85
2022/11/20 08:48:53;;;;;;;;;9.00;7.00;;;;;9.16;100.00;100507.34;6223480;22;45422;-84
2022/11/20 08:51:20;;;;;;;;;6.67;6.67;;;;;9.13;100.00;100494.00;6248711;22;46788;-85
2022/11/20 08:53:46;;;;;;;;;7.00;7.00;;;;;9.17;100.00;100506.44;6223383;22;44961;-85
2022/11/20 08:56:12;;;;;;;;;3.33;3.00;;;;;9.12;100.00;100494.88;6250476;22;45238;-85
2022/11/20 08:58:38;;;;;;;;;8.00;7.00;;;;;9.20;100.00;100506.53;6226469;22;45295;-85
2022/11/20 09:01:04;;;;;;;;;8.33;8.33;;;;;9.24;100.00;100489.78;6248433;22;45386;-85
2022/11/20 09:03:30;;;;;;;;;6.00;6.00;;;;;9.28;100.00;100483.66;6248985;22;45703;-86
2022/11/20 09:06:14;;;;;;;;;9.33;7.00;;;;;9.30;100.00;100479.25;6201258;22;46119;-86
2022/11/20 09:08:40;;;;;;;;;9.67;8.00;;;;;9.29;100.00;100485.44;6225906;22;45294;-86
2022/11/20 09:14:31;;;;;;;;;8.00;8.00;;;;;9.38;100.00;100479.38;6227133;22;44672;-85
2022/11/20 09:16:57;;;;;;;;;6.67;6.67;;;;;9.39;100.00;100471.44;6224754;22;45409;-85
2022/11/20 09:19:24;;;;;;;;;8.00;7.67;;;;;9.43;100.00;100476.78;6223778;22;45299;-85
2022/11/20 09:21:50;;;;;;;;;8.00;8.00;;;;;9.39;100.00;100466.13;6204758;22;46729;-85
2022/11/20 09:24:16;;;;;;;;;8.67;8.67;;;;;9.43;100.00;100471.47;6222006;22;45462;-86
2022/11/20 09:30:04;;;;;;;;;8.67;8.67;;;;;9.41;100.00;100456.44;6208472;22;45351;-85
2022/11/20 09:32:29;;;;;;;;;9.67;8.33;;;;;9.37;100.00;100440.41;6167492;23;45424;-85
2022/11/20 09:34:55;;;;;;;;;9.00;9.00;;;;;9.44;100.00;100457.34;6168573;23;45299;-85
2022/11/20 09:37:21;;;;;;;;;13.67;9.33;;;;;9.42;100.00;100438.72;6195404;23;44940;-85
2022/11/20 09:39:49;;;;;;;;;10.00;10.00;;;;;9.33;100.00;100443.91;6191460;23;45895;-86
2022/11/20 09:42:54;;;;;;;;;13.00;12.33;;;;;9.33;100.00;100447.47;6193155;23;45407;-85
2022/11/20 09:45:42;;;;;;;;;9.00;9.00;;;;;9.39;100.00;100449.28;6194040;23;45396;-86
2022/11/20 09:48:47;;;;;;;;;13.67;12.67;;;;;9.30;100.00;100441.22;6192955;23;45360;-85
2022/11/20 09:51:35;;;;;;;;;10.00;10.00;;;;;9.23;100.00;100442.91;6166188;23;45408;-86
2022/11/20 09:54:50;;;;;;;;;15.67;13.33;;;;;9.27;100.00;100443.81;6193954;23;45354;-86
2022/11/20 09:57:25;;;;;;;;;14.00;13.67;;;;;9.28;100.00;100438.53;6167450;23;45574;-86
2022/11/20 09:59:59;;;;;;;;;10.67;10.67;;;;;9.21;100.00;100434.03;6168585;23;45388;-86
2022/11/20 10:02:29;;;;;;;;;9.00;9.00;;;;;9.25;100.00;100424.31;6194913;23;45411;-85
2022/11/20 10:05:06;;;;;;;;;9.67;9.67;;;;;9.21;100.00;100437.56;6193559;23;45304;-86
2022/11/20 10:07:54;;;;;;;;;13.67;12.00;;;;;9.13;100.00;100425.94;6166631;23;45414;-86
2022/11/20 10:13:57;;;;;;;;;12.00;9.67;;;;;9.32;100.00;100416.47;6194563;23;45435;-86
2022/11/20 10:17:05;;;;;;;;;8.67;8.67;;;;;9.32;100.00;100395.25;6167559;23;45633;-84
2022/11/20 10:20:11;;;;;;;;;12.33;9.67;;;;;9.43;100.00;100399.81;6168230;23;45337;-86
2022/11/20 10:22:53;;;;;;;;;9.00;9.00;;;;;9.64;100.00;100396.56;6077577;23;45254;-86
2022/11/20 10:25:21;;;;;;;;;9.00;7.33;;;;;9.76;100.00;100388.72;6100447;23;45352;-87
2022/11/20 10:28:18;;;;;;;;;8.33;8.33;;;;;9.95;100.00;100395.13;6101718;23;45277;-85
2022/11/20 10:30:48;;;;;;;;;8.33;8.33;;;;;10.02;100.00;100387.25;6080305;23;44863;-85
2022/11/20 10:33:23;;;;;;;;;7.00;7.00;;;;;10.12;100.00;100392.63;6106288;23;45404;-86
2022/11/20 10:36:13;;;;;;;;;6.00;4.00;;;;;10.27;100.00;100391.91;6081012;23;44731;-85
2022/11/20 10:39:20;;;;;;;;;7.33;7.33;;;;;10.48;100.00;100393.91;6080856;23;45492;-85
2022/11/20 10:41:50;;;;;;;;;7.33;4.00;;;;;10.65;100.00;100381.66;5960283;23;45522;-84
2022/11/20 10:47:10;;;;;;;;;9.00;7.00;;;;;10.76;100.00;100376.41;5960065;23;45676;-86
2022/11/20 10:49:36;;;;;;;;;3.00;3.00;;;;;10.73;100.00;100369.31;5937273;23;46938;-85
2022/11/20 10:52:10;;;;;;;;;4.00;4.00;;;;;10.68;100.00;100391.41;5959279;23;45344;-83
2022/11/20 10:55:03;;;;;;;;;4.00;4.00;;;;;10.57;100.00;100383.38;5960076;23;45297;-85
2022/11/20 10:57:47;;;;;;;;;3.00;3.00;;;;;10.44;100.00;100378.81;5960061;23;45398;-85
2022/11/20 11:00:13;;;;;;;;;7.67;3.33;;;;;10.33;100.00;100349.47;6013455;23;47487;-84
2022/11/20 11:02:48;;;;;;;;;4.00;4.00;;;;;10.31;100.00;100340.59;5990970;23;45314;-85
2022/11/20 11:06:06;;;;;;;;;5.33;3.00;;;;;10.43;100.00;100359.31;5992346;23;45308;-86
2022/11/20 11:08:37;;;;;;;;;8.00;6.67;;;;;10.39;100.00;100362.81;5992781;23;44862;-85
2022/11/20 11:11:27;;;;;;;;;4.00;4.00;;;;;10.33;100.00;100341.50;5993427;23;47851;-86
2022/11/20 11:13:53;;;;;;;;;5.00;5.00;;;;;10.30;100.00;100330.84;6017343;23;45446;-86
2022/11/20 11:16:24;;;;;;;;;3.00;3.00;;;;;10.17;100.00;100330.69;5989577;23;44994;-86
2022/11/20 11:18:50;;;;;;;;;7.00;2.00;;;;;10.15;100.00;100324.47;6165835;23;45461;-86
2022/11/20 11:21:24;;;;;;;;;7.00;3.00;;;;;10.18;100.00;100327.19;6195654;23;45989;-86
2022/11/20 11:24:03;;;;;;;;;4.00;3.67;;;;;10.27;100.00;100328.13;6194459;23;45251;-86
2022/11/20 11:26:29;;;;;;;;;4.67;4.33;;;;;10.35;100.00;100339.75;6168874;23;45484;-86
2022/11/20 11:29:04;;;;;;;;;5.00;5.00;;;;;10.51;100.00;100354.94;6168770;22;44996;-86
2022/11/20 11:31:33;;;;;;;;;3.00;3.00;;;;;10.55;100.00;100334.59;6168811;23;47462;-86
2022/11/20 11:34:12;;;;;;;;;3.00;3.00;;;;;10.69;100.00;100343.56;6196878;23;45355;-86
2022/11/20 11:36:38;;;;;;;;;2.67;2.67;;;;;10.77;100.00;100335.66;6170024;23;45430;-86
2022/11/20 11:39:10;;;;;;;;;3.00;3.00;;;;;10.82;100.00;100340.09;6196959;23;45322;-85
2022/11/20 11:41:36;;;;;;;;;5.67;4.00;;;;;10.81;100.00;100329.47;6170012;23;47097;-85
2022/11/20 11:47:30;;;;;;;;;3.33;3.33;;;;;10.68;100.00;100320.50;6199119;23;44691;-85
2022/11/20 11:50:08;;;;;;;;;3.00;3.00;;;;;10.61;100.00;100322.22;6171913;23;45570;-86
2022/11/20 11:52:59;;;;;;;;;5.33;4.00;;;;;10.58;100.00;100322.22;6168813;23;47114;-86
2022/11/20 11:55:49;;;;;;;;;2.33;1.67;;;;;10.54;100.00;100317.75;6170694;23;45591;-86
2022/11/20 11:58:33;;;;;;;;;5.67;4.00;;;;;10.51;100.00;100301.78;6196914;23;45385;-86
2022/11/20 12:01:27;;;;;;;;;3.00;2.67;;;;;10.47;100.00;100299.09;6170543;23;45149;-86
2022/11/20 12:04:14;;;;;;;;;4.33;2.00;;;;;10.43;100.00;100290.19;6167769;23;46944;-86
2022/11/20 12:06:46;;;;;;;;;2.33;2.33;;;;;10.47;100.00;100286.69;6195848;23;45216;-85
2022/11/20 12:09:12;;;;;;;;;8.00;7.67;;;;;10.57;100.00;100288.50;6196210;23;44682;-84
2022/11/20 12:11:49;;;;;;;;;8.33;5.00;;;;;10.69;100.00;100282.41;6171280;23;45256;-86
2022/11/20 12:14:37;;;;;;;;;7.00;4.67;;;;;10.74;100.00;100274.44;6171317;23;47143;-86
2022/11/20 12:17:02;;;;;;;;;4.00;4.00;;;;;10.86;100.00;100274.50;6170554;23;45463;-87
2022/11/20 12:19:34;;;;;;;;;2.67;2.67;;;;;11.00;100.00;100271.91;6197052;23;45645;-87
2022/11/20 12:22:22;;;;;;;;;5.00;4.00;;;;;11.15;100.00;100281.72;6169351;23;45228;-86